Time;durP1;ratioP1;P1;durP2;ratioP2;P2;SDS_P1;SDS_P2;PMS_P1;PMS_P2;Temp;Humidity;BMP_temperature;BMP_pressure;BME280_temperature;BME280_humidity;BME280_pressure;Samples;Min_cycle;Max_cycle;Signal;HPM_P1;HPM_P2
2023/05/13 00:02:18;;;;;;;;;;;20.00;65.80;;;;;;10410338;28;93954;-65
2023/05/13 00:07:20;;;;;;;;;;;20.00;65.90;;;;;;10408856;28;95823;-65
2023/05/13 00:12:22;;;;;;;;;;;20.00;65.90;;;;;;10409952;28;93508;-65
2023/05/13 00:17:23;;;;;;;;;;;20.00;66.00;;;;;;10410287;28;93484;-65
2023/05/13 00:22:25;;;;;;;;;;;19.90;65.90;;;;;;10410795;28;93360;-65
2023/05/13 00:27:27;;;;;;;;;;;19.90;65.80;;;;;;10409448;28;93517;-65
2023/05/13 00:32:28;;;;;;;;;;;19.90;65.80;;;;;;10410589;27;93507;-66
2023/05/13 00:37:30;;;;;;;;;;;19.90;65.80;;;;;;10409356;28;93371;-66
2023/05/13 00:42:32;;;;;;;;;;;19.90;65.70;;;;;;10410736;28;92364;-65
2023/05/13 00:47:34;;;;;;;;;;;19.90;65.80;;;;;;10395284;27;93727;-65
2023/05/13 00:52:39;;;;;;;;;;;19.90;65.80;;;;;;10417609;28;94485;-65
2023/05/13 00:57:41;;;;;;;;;;;19.90;65.80;;;;;;10414574;28;96816;-66
2023/05/13 01:02:45;;;;;;;;;;;19.90;65.70;;;;;;10417208;28;93754;-65
2023/05/13 01:07:55;;;;;;;;;;;19.80;65.70;;;;;;10416955;28;94674;-65
2023/05/13 01:12:59;;;;;;;;;;;19.80;65.80;;;;;;10416281;28;93413;-65
2023/05/13 01:18:06;;;;;;;;;;;19.80;65.70;;;;;;10416775;28;94506;-65
2023/05/13 01:23:10;;;;;;;;;;;19.80;65.50;;;;;;10416856;28;94515;-65
2023/05/13 01:28:11;;;;;;;;;;;19.80;65.50;;;;;;10415758;28;93544;-64
2023/05/13 01:33:14;;;;;;;;;;;19.80;65.70;;;;;;10417330;28;93578;-65
2023/05/13 01:38:16;;;;;;;;;;;19.80;65.60;;;;;;10396858;28;93784;-66
2023/05/13 01:43:17;;;;;;;;;;;19.70;65.50;;;;;;10414326;28;93548;-66
2023/05/13 01:48:19;;;;;;;;;;;19.70;65.60;;;;;;10412756;28;96844;-65
2023/05/13 01:53:21;;;;;;;;;;;19.70;65.50;;;;;;10396854;28;94637;-65
2023/05/13 01:58:22;;;;;;;;;;;19.70;65.60;;;;;;10413015;28;94613;-65
2023/05/13 02:03:24;;;;;;;;;;;19.70;65.60;;;;;;10415376;28;94210;-66
2023/05/13 02:08:26;;;;;;;;;;;19.70;65.70;;;;;;10415287;28;94369;-65
2023/05/13 02:13:28;;;;;;;;;;;19.70;65.60;;;;;;10413895;28;93846;-65
2023/05/13 02:18:30;;;;;;;;;;;19.70;65.50;;;;;;10412910;28;93417;-66
2023/05/13 02:23:32;;;;;;;;;;;19.70;65.50;;;;;;10414321;28;92787;-66
2023/05/13 02:28:34;;;;;;;;;;;19.70;65.70;;;;;;10396145;28;94089;-65
2023/05/13 02:33:35;;;;;;;;;;;19.70;65.60;;;;;;10396153;28;94418;-66
2023/05/13 02:38:37;;;;;;;;;;;19.70;65.60;;;;;;10392679;28;96831;-66
2023/05/13 02:43:39;;;;;;;;;;;19.70;65.50;;;;;;10414100;28;94561;-64
2023/05/13 02:48:40;;;;;;;;;;;19.70;65.50;;;;;;10411137;28;93449;-65
2023/05/13 02:53:42;;;;;;;;;;;19.70;65.60;;;;;;10413037;28;94416;-64
2023/05/13 02:58:44;;;;;;;;;;;19.70;65.30;;;;;;10412759;28;93423;-65
2023/05/13 03:03:45;;;;;;;;;;;19.70;65.50;;;;;;10413547;28;94605;-65
2023/05/13 03:08:47;;;;;;;;;;;19.70;65.40;;;;;;10411966;28;93529;-64
2023/05/13 03:13:49;;;;;;;;;;;19.70;65.40;;;;;;10413068;28;92560;-65
2023/05/13 03:18:50;;;;;;;;;;;19.70;65.30;;;;;;10411254;28;94487;-65
2023/05/13 03:23:52;;;;;;;;;;;19.70;65.40;;;;;;10411852;28;93398;-65
2023/05/13 03:28:54;;;;;;;;;;;19.70;65.30;;;;;;10408580;28;95794;-66
2023/05/13 03:33:55;;;;;;;;;;;19.70;65.10;;;;;;10411802;28;94414;-65
2023/05/13 03:38:57;;;;;;;;;;;19.70;65.20;;;;;;10412052;28;93500;-65
2023/05/13 03:43:59;;;;;;;;;;;19.70;65.10;;;;;;10410476;28;93091;-65
2023/05/13 05:07:24;;;;;;;;;;;19.60;64.90;;;;;;10335104;28;94208;-64
2023/05/13 05:12:26;;;;;;;;;;;19.60;65.00;;;;;;10352770;28;93711;-65
2023/05/13 05:17:31;;;;;;;;;;;19.50;64.90;;;;;;10376252;28;93406;-65
2023/05/13 05:22:35;;;;;;;;;;;19.50;64.90;;;;;;10376127;28;93583;-65
2023/05/13 05:27:36;;;;;;;;;;;19.50;65.00;;;;;;10373564;28;96382;-65
2023/05/13 05:32:38;;;;;;;;;;;19.50;65.10;;;;;;10397466;27;93038;-65
2023/05/13 05:37:40;;;;;;;;;;;19.50;65.00;;;;;;10417444;28;94464;-65
2023/05/13 05:42:42;;;;;;;;;;;19.50;64.80;;;;;;10417322;28;93381;-66
2023/05/13 05:47:43;;;;;;;;;;;19.50;65.40;;;;;;10420265;27;94551;-65
2023/05/13 05:52:45;;;;;;;;;;;19.50;65.50;;;;;;10458826;27;93668;-66
2023/05/13 05:57:46;;;;;;;;;;;19.50;65.50;;;;;;10458429;27;93435;-65
2023/05/13 06:02:48;;;;;;;;;;;19.50;65.50;;;;;;10435196;27;93336;-65
2023/05/13 06:07:50;;;;;;;;;;;19.50;65.50;;;;;;10414934;27;93182;-65
2023/05/13 06:12:52;;;;;;;;;;;19.60;65.50;;;;;;10415377;28;93410;-66
2023/05/13 06:17:54;;;;;;;;;;;19.60;65.50;;;;;;10412405;27;95845;-65
2023/05/13 06:22:55;;;;;;;;;;;19.60;65.40;;;;;;10415282;27;94210;-66
2023/05/13 06:27:57;;;;;;;;;;;19.60;65.30;;;;;;10414181;27;93487;-65
2023/05/13 06:33:02;;;;;;;;;;;19.70;65.20;;;;;;10414622;27;93707;-65
2023/05/13 06:38:03;;;;;;;;;;;19.70;65.00;;;;;;10413611;27;93611;-65
2023/05/13 06:43:05;;;;;;;;;;;19.70;64.90;;;;;;10413205;28;93048;-66
2023/05/13 06:48:07;;;;;;;;;;;19.80;65.60;;;;;;10413228;27;93710;-65
2023/05/13 06:53:12;;;;;;;;;;;19.90;66.00;;;;;;10414888;27;93209;-64
2023/05/13 06:58:13;;;;;;;;;;;20.00;66.60;;;;;;10413935;27;93069;-63
2023/05/13 07:03:16;;;;;;;;;;;20.00;66.30;;;;;;10412898;27;93161;-63
2023/05/13 07:08:18;;;;;;;;;;;20.00;66.10;;;;;;10410084;28;95895;-64
2023/05/13 07:13:19;;;;;;;;;;;20.00;66.20;;;;;;10413281;27;93924;-64
2023/05/13 07:18:22;;;;;;;;;;;20.00;66.40;;;;;;10413550;28;94817;-64
2023/05/13 07:23:24;;;;;;;;;;;20.00;66.60;;;;;;10413325;28;94803;-65
2023/05/13 07:28:26;;;;;;;;;;;20.10;66.60;;;;;;10412510;27;94166;-64
2023/05/13 07:33:27;;;;;;;;;;;20.10;66.00;;;;;;10412570;28;94623;-65
2023/05/13 07:38:29;;;;;;;;;;;20.10;64.10;;;;;;10411281;28;93259;-65
2023/05/13 07:43:33;;;;;;;;;;;20.00;63.20;;;;;;10412249;28;92495;-65
2023/05/13 07:48:35;;;;;;;;;;;20.00;62.80;;;;;;10411801;27;93258;-64
2023/05/13 07:53:37;;;;;;;;;;;20.00;62.20;;;;;;10412742;28;93295;-63
2023/05/13 07:58:38;;;;;;;;;;;19.90;61.90;;;;;;10408973;28;96836;-64
2023/05/13 08:03:40;;;;;;;;;;;19.90;62.40;;;;;;10411687;28;92779;-65
2023/05/13 08:08:42;;;;;;;;;;;19.90;62.60;;;;;;10412571;27;93895;-65
2023/05/13 08:13:44;;;;;;;;;;;19.80;62.40;;;;;;10411992;27;93472;-65
2023/05/13 08:18:46;;;;;;;;;;;19.80;62.40;;;;;;10411453;27;93085;-65
2023/05/13 08:23:48;;;;;;;;;;;19.80;61.70;;;;;;10410423;27;93760;-65
2023/05/13 08:28:50;;;;;;;;;;;19.80;62.00;;;;;;10409357;28;93412;-65
2023/05/13 08:33:55;;;;;;;;;;;19.90;61.80;;;;;;10411663;27;92680;-65
2023/05/13 08:38:57;;;;;;;;;;;19.90;61.80;;;;;;10411551;27;93896;-65
2023/05/13 08:43:59;;;;;;;;;;;19.90;61.60;;;;;;10410821;27;94448;-65
2023/05/13 08:49:01;;;;;;;;;;;19.90;61.70;;;;;;10406919;28;96934;-66
2023/05/13 08:54:03;;;;;;;;;;;19.80;61.70;;;;;;10425695;27;92604;-66
2023/05/13 08:59:05;;;;;;;;;;;19.80;62.90;;;;;;10411107;27;94400;-65
2023/05/13 09:04:07;;;;;;;;;;;19.90;63.10;;;;;;10410462;28;93255;-65
2023/05/13 09:09:09;;;;;;;;;;;20.00;62.80;;;;;;10414048;27;93170;-65
2023/05/13 09:14:12;;;;;;;;;;;20.00;62.30;;;;;;10416076;27;94429;-65
2023/05/13 09:19:14;;;;;;;;;;;20.00;62.40;;;;;;10413063;28;93450;-64
2023/05/13 09:24:20;;;;;;;;;;;20.00;62.30;;;;;;10416942;27;92709;-62
2023/05/13 09:29:23;;;;;;;;;;;19.90;62.10;;;;;;10416902;27;94602;-63
2023/05/13 09:34:26;;;;;;;;;;;19.90;62.30;;;;;;10416623;27;94408;-63
2023/05/13 09:39:29;;;;;;;;;;;19.90;62.90;;;;;;10413798;27;96824;-64
2023/05/13 09:44:34;;;;;;;;;;;19.90;62.80;;;;;;10416559;27;93430;-64
2023/05/13 09:49:36;;;;;;;;;;;20.00;63.10;;;;;;10415280;27;93007;-64
2023/05/13 09:54:38;;;;;;;;;;;20.10;63.20;;;;;;10414035;28;92449;-64
2023/05/13 09:59:40;;;;;;;;;;;20.20;63.10;;;;;;10415597;27;93404;-63
2023/05/13 10:04:42;;;;;;;;;;;20.30;63.20;;;;;;10413486;28;93075;-64
2023/05/13 10:09:44;;;;;;;;;;;20.30;63.30;;;;;;10413251;28;93432;-64
2023/05/13 10:14:48;;;;;;;;;;;20.40;62.90;;;;;;10415842;27;92703;-64
2023/05/13 10:19:51;;;;;;;;;;;20.50;62.80;;;;;;10413756;27;93267;-64
2023/05/13 10:24:54;;;;;;;;;;;20.50;62.80;;;;;;10414812;27;93815;-64
2023/05/13 10:29:56;;;;;;;;;;;20.50;62.80;;;;;;10412254;28;95878;-64
2023/05/13 10:35:27;;;;;;;;;;;20.50;62.90;;;;;;10414785;28;94494;-64
2023/05/13 10:40:47;;;;;;;;;;;20.50;62.80;;;;;;10414213;28;93583;-63
2023/05/13 10:45:56;;;;;;;;;;;20.50;62.50;;;;;;10416116;27;93078;-64
2023/05/13 10:51:00;;;;;;;;;;;20.50;62.20;;;;;;10414889;27;93664;-65
2023/05/13 10:56:06;;;;;;;;;;;20.60;63.00;;;;;;10413521;27;93788;-63
2023/05/13 11:01:13;;;;;;;;;;;20.70;64.00;;;;;;10414882;28;95322;-65
2023/05/13 11:06:16;;;;;;;;;;;20.90;63.60;;;;;;10414627;27;93802;-65
2023/05/13 11:11:18;;;;;;;;;;;20.90;62.20;;;;;;10414405;27;94540;-65
2023/05/13 11:16:20;;;;;;;;;;;20.90;61.40;;;;;;10412795;27;93470;-65
2023/05/13 11:21:29;;;;;;;;;;;20.90;61.00;;;;;;10411072;28;96851;-65
2023/05/13 11:26:42;;;;;;;;;;;20.90;60.10;;;;;;10413517;27;93235;-65
2023/05/13 11:31:46;;;;;;;;;;;20.90;60.00;;;;;;10413609;28;93628;-65
2023/05/13 11:36:54;;;;;;;;;;;20.90;60.30;;;;;;10412402;27;93324;-64
2023/05/13 11:42:00;;;;;;;;;;;20.90;60.50;;;;;;10413087;28;94298;-65
2023/05/13 11:47:04;;;;;;;;;;;20.90;60.20;;;;;;10411956;28;94433;-65
2023/05/13 11:52:10;;;;;;;;;;;20.90;59.90;;;;;;10409565;27;94481;-65
2023/05/13 11:57:19;;;;;;;;;;;20.80;59.70;;;;;;10408025;27;93242;-65
2023/05/13 12:02:22;;;;;;;;;;;20.80;59.90;;;;;;10408534;27;93507;-66
2023/05/13 12:07:24;;;;;;;;;;;20.80;60.20;;;;;;10408469;27;93920;-65
2023/05/13 12:12:27;;;;;;;;;;;20.70;60.30;;;;;;10409080;27;94915;-66
2023/05/13 12:17:29;;;;;;;;;;;20.70;60.40;;;;;;10410725;27;93581;-65
2023/05/13 12:22:34;;;;;;;;;;;20.70;60.60;;;;;;10411574;27;92765;-65
2023/05/13 12:27:36;;;;;;;;;;;20.70;60.90;;;;;;10411333;28;94491;-65
2023/05/13 12:32:44;;;;;;;;;;;20.70;61.10;;;;;;10426929;27;93419;-66
2023/05/13 12:37:57;;;;;;;;;;;20.70;61.10;;;;;;10409092;28;94487;-66
2023/05/13 12:42:59;;;;;;;;;;;20.70;61.20;;;;;;10411976;27;93553;-66
2023/05/13 12:48:01;;;;;;;;;;;20.70;61.40;;;;;;10418671;27;92632;-65
2023/05/13 12:53:03;;;;;;;;;;;20.70;61.50;;;;;;10418073;27;93750;-66
2023/05/13 12:58:06;;;;;;;;;;;20.70;61.10;;;;;;10417809;28;94530;-66
2023/05/13 13:03:08;;;;;;;;;;;20.80;59.90;;;;;;10414684;28;96773;-65
2023/05/13 13:08:10;;;;;;;;;;;20.80;57.60;;;;;;10416396;28;94684;-65
2023/05/13 13:13:12;;;;;;;;;;;20.80;57.10;;;;;;10417126;27;92694;-66
2023/05/13 13:18:14;;;;;;;;;;;20.80;56.00;;;;;;10417148;27;92838;-65
2023/05/13 13:23:16;;;;;;;;;;;20.90;56.20;;;;;;10416374;27;93125;-65
2023/05/13 13:28:17;;;;;;;;;;;20.90;55.60;;;;;;10415728;28;93340;-65
2023/05/13 13:33:19;;;;;;;;;;;20.90;54.50;;;;;;10417914;27;94618;-65
2023/05/13 13:38:21;;;;;;;;;;;20.90;54.80;;;;;;10418079;27;93914;-66
2023/05/13 13:43:23;;;;;;;;;;;20.90;53.50;;;;;;10415905;27;94446;-65
2023/05/13 13:48:24;;;;;;;;;;;20.90;53.90;;;;;;10416776;28;94348;-65
2023/05/13 13:53:26;;;;;;;;;;;20.90;53.50;;;;;;10413829;27;96837;-65
2023/05/13 13:58:28;;;;;;;;;;;20.90;53.30;;;;;;10414558;28;93490;-65
2023/05/13 14:03:29;;;;;;;;;;;20.90;51.50;;;;;;10416688;27;93238;-65
2023/05/13 14:08:31;;;;;;;;;;;20.90;51.70;;;;;;10415513;27;93414;-65
2023/05/13 14:13:33;;;;;;;;;;;20.90;51.70;;;;;;10416087;28;94568;-65
2023/05/13 14:18:35;;;;;;;;;;;20.90;51.10;;;;;;10414464;27;93585;-65
2023/05/13 14:23:37;;;;;;;;;;;20.90;51.10;;;;;;10416270;27;93279;-65
2023/05/13 14:28:39;;;;;;;;;;;20.80;50.50;;;;;;10416021;27;92062;-65
2023/05/13 14:33:41;;;;;;;;;;;20.90;50.20;;;;;;10415049;27;94438;-65
2023/05/13 14:38:43;;;;;;;;;;;20.80;50.60;;;;;;10415452;27;93575;-65
2023/05/13 14:43:45;;;;;;;;;;;20.80;51.00;;;;;;10411737;28;96727;-66
2023/05/13 14:48:47;;;;;;;;;;;20.80;50.90;;;;;;10414868;27;94456;-66
2023/05/13 14:53:49;;;;;;;;;;;20.80;51.10;;;;;;10414835;27;93655;-66
2023/05/13 14:58:51;;;;;;;;;;;20.80;50.80;;;;;;10414878;27;93150;-66
2023/05/13 15:03:52;;;;;;;;;;;20.80;50.60;;;;;;10413036;27;94435;-66
2023/05/13 15:08:55;;;;;;;;;;;20.80;50.90;;;;;;10414393;27;94580;-64
2023/05/13 15:13:57;;;;;;;;;;;20.80;50.50;;;;;;10413211;28;94454;-66
2023/05/13 15:18:59;;;;;;;;;;;20.80;50.70;;;;;;10415424;28;93712;-66
2023/05/13 15:24:00;;;;;;;;;;;20.70;51.00;;;;;;10414030;27;93467;-66
2023/05/13 15:29:02;;;;;;;;;;;20.80;50.70;;;;;;10412562;27;93788;-66
2023/05/13 15:34:04;;;;;;;;;;;20.70;50.50;;;;;;10411374;28;96928;-67
2023/05/13 15:39:06;;;;;;;;;;;20.80;50.80;;;;;;10413656;28;93741;-66
2023/05/13 15:44:08;;;;;;;;;;;20.70;51.40;;;;;;10411178;28;94647;-66
2023/05/13 15:49:09;;;;;;;;;;;20.80;52.50;;;;;;10411379;28;93442;-65
2023/05/13 15:54:11;;;;;;;;;;;20.80;52.90;;;;;;10411543;28;93443;-64
2023/05/13 15:59:13;;;;;;;;;;;20.80;53.40;;;;;;10412947;28;94677;-65
2023/05/13 16:04:15;;;;;;;;;;;20.80;54.10;;;;;;10413049;27;93367;-65
2023/05/13 16:09:16;;;;;;;;;;;20.80;55.70;;;;;;10413290;27;92782;-64
2023/05/13 16:14:18;;;;;;;;;;;20.90;56.70;;;;;;10412462;28;94250;-63
2023/05/13 16:19:20;;;;;;;;;;;21.10;56.50;;;;;;10416265;27;93476;-63
2023/05/13 16:24:21;;;;;;;;;;;21.20;55.60;;;;;;10417081;28;96459;-64
2023/05/13 16:29:24;;;;;;;;;;;21.20;57.20;;;;;;10419594;28;94246;-65
2023/05/13 16:34:28;;;;;;;;;;;21.50;58.90;;;;;;10419692;27;93364;-64
2023/05/13 16:39:30;;;;;;;;;;;21.70;58.00;;;;;;10419595;27;93124;-65
2023/05/13 16:44:31;;;;;;;;;;;21.80;59.30;;;;;;10418699;27;93072;-65
2023/05/13 16:49:36;;;;;;;;;;;22.10;59.20;;;;;;10417494;28;94424;-66
2023/05/13 16:54:38;;;;;;;;;;;22.50;56.70;;;;;;10433387;27;94125;-66
2023/05/13 16:59:40;;;;;;;;;;;22.50;55.20;;;;;;10419944;28;94061;-67
2023/05/13 17:04:41;;;;;;;;;;;22.40;54.60;;;;;;10417194;28;94438;-66
2023/05/13 17:09:43;;;;;;;;;;;22.30;53.80;;;;;;10416822;28;93421;-67
2023/05/13 17:14:45;;;;;;;;;;;22.30;54.30;;;;;;10416275;28;96854;-66
2023/05/13 17:19:46;;;;;;;;;;;22.30;53.50;;;;;;10418222;27;93000;-66
2023/05/13 17:24:48;;;;;;;;;;;22.20;53.50;;;;;;10415404;28;93257;-66
2023/05/13 17:29:50;;;;;;;;;;;22.20;53.00;;;;;;10416495;27;92611;-67
2023/05/13 17:34:51;;;;;;;;;;;22.10;53.10;;;;;;10416983;27;93314;-66
2023/05/13 17:39:53;;;;;;;;;;;22.10;53.30;;;;;;10417502;27;93466;-67
2023/05/13 17:44:55;;;;;;;;;;;22.00;53.60;;;;;;10416627;28;94515;-67
2023/05/13 17:49:57;;;;;;;;;;;22.00;54.40;;;;;;10418090;28;93717;-67
2023/05/13 17:54:59;;;;;;;;;;;22.00;54.40;;;;;;10417375;28;94916;-66
2023/05/13 18:00:05;;;;;;;;;;;22.00;54.40;;;;;;10416347;28;94457;-66
2023/05/13 18:05:08;;;;;;;;;;;22.00;54.80;;;;;;10414835;28;95618;-67
2023/05/13 18:10:10;;;;;;;;;;;22.00;55.00;;;;;;10416571;27;93388;-67
2023/05/13 18:15:12;;;;;;;;;;;22.00;55.30;;;;;;10416917;28;94829;-67
2023/05/13 18:20:14;;;;;;;;;;;22.00;55.50;;;;;;10416309;27;94387;-67
2023/05/13 18:25:16;;;;;;;;;;;22.00;55.50;;;;;;10415977;28;94431;-67
2023/05/13 18:30:18;;;;;;;;;;;21.90;55.70;;;;;;10416828;27;94259;-67
2023/05/13 18:35:22;;;;;;;;;;;21.90;55.90;;;;;;10415744;27;93431;-68
2023/05/13 18:40:24;;;;;;;;;;;21.80;56.10;;;;;;10415115;27;92820;-67
2023/05/13 18:45:25;;;;;;;;;;;21.80;57.10;;;;;;10414835;27;94568;-68
2023/05/13 18:50:27;;;;;;;;;;;21.80;56.80;;;;;;10414592;27;93773;-67
2023/05/13 18:55:29;;;;;;;;;;;21.80;57.10;;;;;;10413140;27;95643;-68
2023/05/13 19:00:31;;;;;;;;;;;21.70;57.10;;;;;;10414274;27;92598;-67
2023/05/13 19:05:32;;;;;;;;;;;21.70;57.30;;;;;;10413190;28;94075;-67
2023/05/13 19:10:34;;;;;;;;;;;21.70;57.50;;;;;;10415142;27;93822;-68
2023/05/13 19:15:41;;;;;;;;;;;21.60;57.50;;;;;;10414984;27;93513;-67
2023/05/13 19:20:45;;;;;;;;;;;21.60;57.60;;;;;;10415110;27;93506;-68
2023/05/13 19:25:46;;;;;;;;;;;21.60;57.80;;;;;;10414424;27;93642;-68
2023/05/13 19:30:49;;;;;;;;;;;21.60;58.00;;;;;;10415169;27;93824;-67
2023/05/13 19:35:52;;;;;;;;;;;21.60;58.00;;;;;;10413783;28;114001;-68
2023/05/13 19:40:54;;;;;;;;;;;21.60;58.00;;;;;;10413862;28;93322;-68
2023/05/13 19:45:56;;;;;;;;;;;21.50;58.10;;;;;;10410522;28;97180;-68
2023/05/13 19:50:58;;;;;;;;;;;21.50;58.20;;;;;;10412612;27;93460;-68
2023/05/13 19:56:00;;;;;;;;;;;21.50;58.20;;;;;;10412895;27;92771;-68
2023/05/13 20:01:01;;;;;;;;;;;21.50;58.30;;;;;;10412207;27;92541;-67
2023/05/13 20:06:03;;;;;;;;;;;21.40;58.30;;;;;;10412699;28;94492;-67
2023/05/13 20:11:05;;;;;;;;;;;21.40;58.30;;;;;;10412298;27;93427;-69
2023/05/13 20:16:07;;;;;;;;;;;21.40;58.20;;;;;;10412952;28;93771;-68
2023/05/13 20:21:09;;;;;;;;;;;21.40;58.50;;;;;;10414063;28;96571;-68
2023/05/13 20:26:10;;;;;;;;;;;21.40;58.60;;;;;;10411406;27;93350;-69
2023/05/13 20:31:13;;;;;;;;;;;21.40;58.80;;;;;;10410828;28;93221;-68
2023/05/13 20:36:15;;;;;;;;;;;21.30;58.80;;;;;;10410030;27;97148;-66
2023/05/13 20:41:16;;;;;;;;;;;21.40;59.20;;;;;;10410916;27;93202;-67
2023/05/13 20:46:18;;;;;;;;;;;21.30;59.30;;;;;;10411810;27;94421;-68
2023/05/13 20:51:20;;;;;;;;;;;21.30;59.40;;;;;;10411440;28;93541;-68
2023/05/13 20:56:21;;;;;;;;;;;21.30;59.50;;;;;;10410852;27;93303;-68
2023/05/13 21:01:23;;;;;;;;;;;21.30;59.70;;;;;;10411558;28;94234;-67
2023/05/13 21:06:26;;;;;;;;;;;21.30;59.80;;;;;;10417514;27;93582;-67
2023/05/13 21:11:27;;;;;;;;;;;21.30;60.00;;;;;;10416879;28;92554;-68
2023/05/13 21:16:29;;;;;;;;;;;21.20;59.90;;;;;;10417332;27;94122;-68
2023/05/13 21:21:31;;;;;;;;;;;21.20;59.90;;;;;;10418074;27;93680;-67
2023/05/13 21:26:33;;;;;;;;;;;21.20;60.00;;;;;;10414035;28;95866;-68
2023/05/13 21:31:34;;;;;;;;;;;21.20;60.00;;;;;;10416934;27;93525;-68
2023/05/13 21:36:38;;;;;;;;;;;21.10;60.00;;;;;;10416547;28;93202;-68
2023/05/13 21:41:40;;;;;;;;;;;21.10;59.90;;;;;;10417032;27;93340;-67
2023/05/13 21:46:41;;;;;;;;;;;21.10;59.90;;;;;;10417059;28;94477;-67
2023/05/13 21:51:43;;;;;;;;;;;21.10;59.90;;;;;;10415504;28;93458;-68
2023/05/13 21:56:45;;;;;;;;;;;21.00;59.80;;;;;;10416687;27;93525;-67
2023/05/13 22:01:49;;;;;;;;;;;21.00;59.80;;;;;;10416144;28;92507;-68
2023/05/13 22:06:51;;;;;;;;;;;21.00;59.80;;;;;;10416793;28;94478;-68
2023/05/13 22:11:52;;;;;;;;;;;21.00;59.90;;;;;;10417404;28;94876;-68
2023/05/13 22:16:54;;;;;;;;;;;20.90;59.80;;;;;;10413561;27;95889;-68
2023/05/13 22:22:09;;;;;;;;;;;20.90;59.80;;;;;;10415394;27;93983;-68
2023/05/13 22:27:11;;;;;;;;;;;20.90;59.80;;;;;;10415379;28;94527;-69
2023/05/13 22:32:13;;;;;;;;;;;20.90;59.80;;;;;;10415623;27;94329;-68
2023/05/13 22:37:14;;;;;;;;;;;20.80;59.80;;;;;;10415197;27;93515;-68
2023/05/13 22:42:16;;;;;;;;;;;20.80;59.80;;;;;;10413566;28;92763;-68
2023/05/13 22:47:17;;;;;;;;;;;20.80;59.80;;;;;;10414402;28;94439;-67
2023/05/13 22:52:19;;;;;;;;;;;20.80;59.90;;;;;;10415083;28;92566;-67
2023/05/13 22:57:21;;;;;;;;;;;20.80;59.80;;;;;;10414447;27;93421;-66
2023/05/13 23:02:23;;;;;;;;;;;20.80;59.80;;;;;;10414908;27;94434;-66
2023/05/13 23:07:24;;;;;;;;;;;20.80;59.80;;;;;;10411137;27;95845;-67
2023/05/13 23:12:26;;;;;;;;;;;20.80;59.80;;;;;;10413522;27;93977;-67
2023/05/13 23:17:28;;;;;;;;;;;20.80;59.80;;;;;;10412480;28;92849;-67
2023/05/13 23:22:29;;;;;;;;;;;20.80;59.80;;;;;;10413721;28;94072;-67
2023/05/13 23:27:32;;;;;;;;;;;20.80;59.80;;;;;;10413349;27;93393;-68
2023/05/13 23:32:33;;;;;;;;;;;20.80;59.80;;;;;;10414191;27;93562;-67
2023/05/13 23:37:35;;;;;;;;;;;20.80;59.80;;;;;;10413085;27;93484;-67
2023/05/13 23:42:37;;;;;;;;;;;20.80;59.80;;;;;;10414311;28;93147;-67
2023/05/13 23:47:39;;;;;;;;;;;20.80;59.80;;;;;;10414033;27;93451;-67
2023/05/13 23:52:40;;;;;;;;;;;20.80;59.90;;;;;;10413037;28;94469;-67
2023/05/13 23:57:42;;;;;;;;;;;20.80;59.80;;;;;;10410156;28;97618;-67
